Time;durP1;ratioP1;P1;durP2;ratioP2;P2;SDS_P1;SDS_P2;PMS_P1;PMS_P2;Temp;Humidity;BMP_temperature;BMP_pressure;BME280_temperature;BME280_humidity;BME280_pressure;Samples;Min_cycle;Max_cycle;Signal;HPM_P1;HPM_P2
2022/01/21 00:00:45;;;;;;;16.77;2.80;;;1.20;99.90;;;;;;5093916;28;20047;-69
2022/01/21 00:03:10;;;;;;;14.55;3.05;;;1.20;99.90;;;;;;5077153;28;20483;-67
2022/01/21 00:05:36;;;;;;;13.18;3.08;;;1.20;99.90;;;;;;5093184;28;20048;-69
2022/01/21 00:08:02;;;;;;;13.70;2.53;;;1.20;99.90;;;;;;5094506;28;20492;-68
2022/01/21 00:10:27;;;;;;;12.82;2.08;;;1.20;99.90;;;;;;5094339;28;20071;-67
2022/01/21 00:12:54;;;;;;;17.55;2.90;;;1.30;99.90;;;;;;5095226;28;20052;-67
2022/01/21 00:15:20;;;;;;;12.90;2.85;;;1.20;99.90;;;;;;5092462;28;20059;-68
2022/01/21 00:17:45;;;;;;;16.38;2.53;;;1.30;99.90;;;;;;5099418;28;20163;-67
2022/01/21 00:31:08;;;;;;;15.00;2.47;;;1.50;99.90;;;;;;5092428;28;20431;-68
2022/01/21 00:33:34;;;;;;;15.07;2.58;;;1.60;99.90;;;;;;5092571;28;20043;-68
2022/01/21 00:35:59;;;;;;;14.55;2.53;;;1.60;99.90;;;;;;5077134;28;20052;-67
2022/01/21 00:38:27;;;;;;;11.82;2.13;;;1.70;99.90;;;;;;5108881;28;20081;-68
2022/01/21 00:40:56;;;;;;;12.15;2.70;;;1.70;99.90;;;;;;5092329;28;20143;-66
2022/01/21 00:43:32;;;;;;;8.15;2.50;;;1.70;99.90;;;;;;5091356;28;20049;-67
2022/01/21 00:45:59;;;;;;;16.17;3.28;;;1.70;99.90;;;;;;5076620;28;20388;-66
2022/01/21 00:48:26;;;;;;;15.60;2.58;;;1.70;99.90;;;;;;5100549;28;20384;-66
2022/01/21 00:50:52;;;;;;;9.60;2.50;;;1.70;99.90;;;;;;5111115;28;20055;-67
2022/01/21 00:53:18;;;;;;;12.38;2.42;;;1.70;99.90;;;;;;5100790;28;20051;-68
2022/01/21 00:55:44;;;;;;;14.82;3.25;;;1.70;99.90;;;;;;5112732;28;20052;-69
2022/01/21 00:58:09;;;;;;;12.45;2.53;;;1.70;99.90;;;;;;5109245;28;20487;-68
2022/01/21 01:00:36;;;;;;;16.23;2.63;;;1.80;99.90;;;;;;5092929;28;20103;-66
2022/01/21 01:03:02;;;;;;;12.00;2.35;;;1.80;99.90;;;;;;5098591;28;20051;-66
2022/01/21 01:05:28;;;;;;;17.52;2.67;;;1.70;99.90;;;;;;5113201;28;20071;-67
2022/01/21 01:07:55;;;;;;;15.82;2.58;;;1.70;99.90;;;;;;5111701;28;20051;-67
2022/01/21 01:10:38;;;;;;;11.95;2.22;;;1.70;99.90;;;;;;5113758;28;20063;-66
2022/01/21 01:21:18;;;;;;;8.52;1.77;;;1.60;99.90;;;;;;5096619;28;20043;-67
2022/01/21 01:29:12;;;;;;;13.60;2.38;;;1.60;99.90;;;;;;5107704;28;20043;-69
2022/01/21 01:31:38;;;;;;;11.07;2.25;;;1.60;99.90;;;;;;5096012;28;20472;-69
2022/01/21 01:34:04;;;;;;;10.45;1.95;;;1.60;99.90;;;;;;5093969;28;20051;-67
2022/01/21 01:36:30;;;;;;;10.52;2.00;;;1.70;99.90;;;;;;5106277;28;20056;-68
2022/01/21 01:41:37;;;;;;;8.77;1.50;;;1.70;99.90;;;;;;5106656;28;20059;-67
2022/01/21 01:49:37;;;;;;;8.20;1.50;;;1.80;99.90;;;;;;5097381;28;20048;-68
2022/01/21 01:52:07;;;;;;;8.63;1.50;;;1.80;99.90;;;;;;5093273;28;20051;-68
2022/01/21 01:54:35;;;;;;;9.95;1.58;;;1.80;99.90;;;;;;5092921;28;20056;-66
2022/01/21 01:57:01;;;;;;;10.50;1.77;;;1.80;99.90;;;;;;5091239;28;20048;-68
2022/01/21 01:59:27;;;;;;;10.38;1.80;;;1.80;99.90;;;;;;5093067;28;20051;-68
2022/01/21 02:01:58;;;;;;;11.65;2.47;;;1.80;99.90;;;;;;5085241;28;20052;-67
2022/01/21 02:04:26;;;;;;;9.98;1.75;;;1.80;99.90;;;;;;5092552;28;20047;-67
2022/01/21 02:06:52;;;;;;;9.25;1.55;;;1.90;99.90;;;;;;5110964;28;20065;-68
2022/01/21 02:09:17;;;;;;;16.05;1.98;;;1.90;99.90;;;;;;5098327;28;20043;-68
2022/01/21 02:11:44;;;;;;;8.18;1.55;;;2.00;99.90;;;;;;5110121;28;20051;-67
2022/01/21 02:14:14;;;;;;;14.63;2.20;;;2.00;99.90;;;;;;5091644;28;20048;-68
2022/01/21 02:22:30;;;;;;;7.65;1.30;;;2.00;99.90;;;;;;5108314;28;20056;-67
2022/01/21 02:24:59;;;;;;;8.40;1.65;;;2.00;99.90;;;;;;5100691;28;20044;-67
2022/01/21 02:27:26;;;;;;;8.63;1.10;;;2.00;99.90;;;;;;5090792;28;20055;-66
2022/01/21 02:29:58;;;;;;;5.55;1.05;;;2.00;99.90;;;;;;5092112;28;20059;-67
2022/01/21 02:32:24;;;;;;;7.95;1.15;;;1.90;99.90;;;;;;5094537;28;20710;-68
2022/01/21 02:34:50;;;;;;;10.80;1.33;;;2.00;99.90;;;;;;5094761;28;20081;-67
2022/01/21 02:37:18;;;;;;;5.68;1.27;;;2.00;99.90;;;;;;5104481;28;20048;-67
2022/01/21 02:39:44;;;;;;;6.00;1.23;;;2.00;99.90;;;;;;5114921;28;20044;-67
2022/01/21 02:42:10;;;;;;;4.50;1.00;;;2.00;99.90;;;;;;5101628;28;20048;-68
2022/01/21 02:44:37;;;;;;;6.70;1.02;;;2.10;99.90;;;;;;5094774;28;20055;-68
2022/01/21 02:47:05;;;;;;;5.65;1.52;;;2.10;99.90;;;;;;5095394;28;20055;-68
2022/01/21 02:49:31;;;;;;;7.97;1.92;;;2.10;99.90;;;;;;5094268;28;20105;-67
2022/01/21 02:52:00;;;;;;;8.98;2.10;;;2.10;99.90;;;;;;5095602;28;20130;-67
2022/01/21 02:54:30;;;;;;;6.57;1.17;;;2.10;99.90;;;;;;5095828;28;20044;-67
2022/01/21 02:56:56;;;;;;;4.00;1.00;;;2.10;99.90;;;;;;5094239;28;20055;-67
2022/01/21 02:59:22;;;;;;;6.75;1.00;;;2.10;99.90;;;;;;5101410;28;20055;-67
2022/01/21 03:01:49;;;;;;;7.28;1.38;;;2.00;99.90;;;;;;5113921;28;20464;-67
2022/01/21 03:04:22;;;;;;;5.72;1.10;;;1.90;99.90;;;;;;5114459;28;20062;-67
2022/01/21 03:06:47;;;;;;;6.20;1.10;;;1.80;99.90;;;;;;5106413;28;20573;-67
2022/01/21 03:09:13;;;;;;;8.65;1.23;;;1.80;99.90;;;;;;5094008;28;20134;-68
2022/01/21 03:11:38;;;;;;;4.78;1.52;;;1.80;99.90;;;;;;5094401;28;20079;-68
2022/01/21 03:14:04;;;;;;;8.02;1.45;;;1.80;99.90;;;;;;5093957;28;20090;-66
2022/01/21 03:16:30;;;;;;;5.45;1.20;;;1.80;99.90;;;;;;5104327;28;20048;-67
2022/01/21 03:18:55;;;;;;;4.10;0.98;;;1.70;99.90;;;;;;5099824;28;20047;-66
2022/01/21 03:21:21;;;;;;;5.65;1.10;;;1.80;99.90;;;;;;5094840;28;20048;-68
2022/01/21 03:23:50;;;;;;;9.27;1.50;;;1.80;99.90;;;;;;5092002;28;20402;-67
2022/01/21 03:26:18;;;;;;;9.52;1.08;;;1.80;99.90;;;;;;5113477;28;20059;-67
2022/01/21 03:28:46;;;;;;;5.65;1.00;;;1.70;99.90;;;;;;5114249;28;20048;-67
2022/01/21 03:31:12;;;;;;;7.53;1.27;;;1.80;99.90;;;;;;5113488;28;20056;-66
2022/01/21 03:33:39;;;;;;;12.43;1.90;;;1.80;99.90;;;;;;5106859;28;20079;-67
2022/01/21 03:36:04;;;;;;;6.88;1.40;;;1.80;99.90;;;;;;5094992;28;20187;-67
2022/01/21 03:38:30;;;;;;;5.05;1.10;;;1.80;99.90;;;;;;5109296;28;20495;-67
2022/01/21 03:40:56;;;;;;;5.72;1.30;;;1.80;99.90;;;;;;5113720;28;20055;-67
2022/01/21 03:43:23;;;;;;;5.70;1.30;;;1.80;99.90;;;;;;5112820;28;20395;-67
2022/01/21 03:45:49;;;;;;;7.90;1.15;;;1.70;99.90;;;;;;5113284;28;20056;-67
2022/01/21 03:48:15;;;;;;;4.45;1.02;;;1.70;99.90;;;;;;5113735;28;20116;-67
2022/01/21 03:50:42;;;;;;;9.65;1.35;;;1.70;99.90;;;;;;5113643;28;20048;-66
2022/01/21 03:53:08;;;;;;;8.43;1.25;;;1.60;99.90;;;;;;5096719;28;20415;-68
2022/01/21 03:55:34;;;;;;;8.00;1.60;;;1.60;99.90;;;;;;5093312;28;20052;-67
2022/01/21 03:58:01;;;;;;;11.07;1.77;;;1.60;99.90;;;;;;5094577;28;20087;-67
2022/01/21 04:00:37;;;;;;;7.25;1.10;;;1.50;99.90;;;;;;5095192;28;20063;-66
2022/01/21 04:03:05;;;;;;;7.60;1.45;;;1.50;99.90;;;;;;5077481;28;20094;-67
2022/01/21 04:05:31;;;;;;;10.68;1.40;;;1.40;99.90;;;;;;5094487;28;20047;-67
2022/01/21 04:07:57;;;;;;;12.13;1.10;;;1.40;99.90;;;;;;5094410;28;20131;-67
2022/01/21 04:10:23;;;;;;;6.10;1.55;;;1.40;99.90;;;;;;5094221;28;20124;-67
2022/01/21 04:12:50;;;;;;;6.70;1.20;;;1.40;99.90;;;;;;5094010;28;20503;-68
2022/01/21 04:15:16;;;;;;;8.55;1.25;;;1.40;99.90;;;;;;5076160;28;20176;-67
2022/01/21 04:17:42;;;;;;;7.40;1.40;;;1.40;99.90;;;;;;5097237;28;20040;-67
2022/01/21 04:20:10;;;;;;;9.13;2.58;;;1.30;99.90;;;;;;5110190;28;20441;-68
2022/01/21 04:22:35;;;;;;;5.85;1.42;;;1.30;99.90;;;;;;5092920;28;20077;-67
2022/01/21 04:25:01;;;;;;;8.07;1.20;;;1.30;99.90;;;;;;5092712;28;20056;-68
2022/01/21 04:27:27;;;;;;;8.02;1.23;;;1.20;99.90;;;;;;5092402;28;20048;-67
2022/01/21 04:29:52;;;;;;;11.57;1.80;;;1.20;99.90;;;;;;5093538;28;20048;-67
2022/01/21 04:32:20;;;;;;;10.40;1.85;;;1.10;99.90;;;;;;5112123;28;20046;-67
2022/01/21 04:34:46;;;;;;;8.70;1.70;;;1.10;99.90;;;;;;5113171;28;20043;-66
2022/01/21 04:37:13;;;;;;;7.15;1.80;;;1.00;99.90;;;;;;5110667;28;20101;-67
2022/01/21 04:39:50;;;;;;;11.52;1.75;;;1.00;99.90;;;;;;5110865;28;20083;-67
2022/01/21 04:47:29;;;;;;;9.13;1.50;;;1.00;99.90;;;;;;5091921;28;20048;-67
2022/01/21 04:49:55;;;;;;;11.75;1.60;;;0.90;99.90;;;;;;5105522;28;20530;-67
2022/01/21 04:52:22;;;;;;;7.72;2.05;;;0.90;99.90;;;;;;5079027;28;20234;-66
2022/01/21 04:54:48;;;;;;;12.80;1.95;;;1.00;99.90;;;;;;5093048;28;20060;-66
2022/01/21 04:57:14;;;;;;;14.45;1.88;;;0.90;99.90;;;;;;5093634;28;20404;-66
2022/01/21 04:59:40;;;;;;;14.27;1.70;;;1.00;99.90;;;;;;5102797;28;20043;-66
2022/01/21 05:02:06;;;;;;;10.73;1.50;;;1.00;99.90;;;;;;5092830;28;20056;-67
2022/01/21 05:04:32;;;;;;;12.38;2.00;;;1.00;99.90;;;;;;5077930;28;20447;-66
2022/01/21 05:06:58;;;;;;;10.98;1.52;;;1.00;99.90;;;;;;5099811;28;20087;-68
2022/01/21 05:09:30;;;;;;;9.20;1.63;;;1.10;99.90;;;;;;5109340;28;20091;-66
2022/01/21 05:11:57;;;;;;;16.88;2.13;;;1.00;99.90;;;;;;5074239;28;20052;-68
2022/01/21 05:14:28;;;;;;;15.40;2.15;;;1.00;99.90;;;;;;5073500;28;20404;-69
2022/01/21 05:17:04;;;;;;;11.15;1.98;;;1.00;99.90;;;;;;5111749;28;20054;-67
2022/01/21 05:19:30;;;;;;;10.65;1.90;;;1.10;99.90;;;;;;5095509;28;20051;-67
2022/01/21 05:21:55;;;;;;;11.48;1.45;;;1.10;99.90;;;;;;5095682;28;20046;-66
2022/01/21 05:24:21;;;;;;;7.32;1.60;;;1.20;99.90;;;;;;5097139;28;20165;-66
2022/01/21 05:26:56;;;;;;;15.75;2.22;;;1.20;99.90;;;;;;5091664;28;20484;-66
2022/01/21 05:29:24;;;;;;;10.88;2.13;;;1.20;99.90;;;;;;5106603;28;20039;-66
2022/01/21 05:31:49;;;;;;;14.40;1.58;;;1.20;99.90;;;;;;5105924;28;20525;-66
2022/01/21 05:34:15;;;;;;;13.95;1.70;;;1.20;99.90;;;;;;5092004;28;20048;-67
2022/01/21 05:36:41;;;;;;;11.35;1.42;;;1.20;99.90;;;;;;5093541;28;20104;-66
2022/01/21 05:39:08;;;;;;;8.93;1.42;;;1.10;99.90;;;;;;5103543;28;20055;-67
2022/01/21 05:41:33;;;;;;;10.52;1.50;;;1.10;99.90;;;;;;5111396;28;20668;-67
2022/01/21 05:44:03;;;;;;;9.52;1.58;;;1.10;99.90;;;;;;5111839;28;20055;-67
2022/01/21 05:46:53;;;;;;;14.82;2.08;;;1.20;99.90;;;;;;5082172;28;20040;-68
2022/01/21 05:49:15;;;;;;;5.90;1.38;;;1.20;99.90;;;;;;5104432;28;20529;-67
2022/01/21 05:51:42;;;;;;;14.55;2.03;;;1.20;99.90;;;;;;5092798;28;20036;-68
2022/01/21 05:54:08;;;;;;;9.63;1.83;;;1.20;99.90;;;;;;5101637;28;20068;-67
2022/01/21 05:56:34;;;;;;;13.50;1.95;;;1.20;99.90;;;;;;5091912;28;20083;-67
2022/01/21 05:59:00;;;;;;;11.13;2.47;;;1.20;99.90;;;;;;5093778;28;20155;-67
2022/01/21 06:01:29;;;;;;;10.32;1.85;;;1.70;99.90;;;;;;5091191;28;20068;-68
2022/01/21 06:03:55;;;;;;;9.20;1.35;;;1.10;99.90;;;;;;5097548;28;20161;-66
2022/01/21 06:06:21;;;;;;;13.20;1.70;;;1.20;99.90;;;;;;5092815;28;20127;-67
2022/01/21 06:08:46;;;;;;;8.05;1.55;;;1.20;99.90;;;;;;5125220;27;20048;-66
2022/01/21 06:11:12;;;;;;;14.95;1.80;;;1.20;99.90;;;;;;5104487;28;20052;-66
2022/01/21 06:13:38;;;;;;;5.60;1.60;;;1.20;99.90;;;;;;5101134;28;20048;-67
2022/01/21 06:16:04;;;;;;;9.98;1.58;;;1.30;99.90;;;;;;5114383;28;20467;-68
2022/01/21 06:18:30;;;;;;;12.68;2.10;;;1.50;99.90;;;;;;5115669;28;20051;-68
2022/01/21 06:20:56;;;;;;;8.98;2.03;;;1.40;99.90;;;;;;5115980;28;20501;-67
2022/01/21 06:23:21;;;;;;;7.75;1.60;;;1.40;99.90;;;;;;5110808;28;20059;-67
2022/01/21 06:25:47;;;;;;;9.88;1.75;;;1.40;99.90;;;;;;5077610;28;20541;-68
2022/01/21 06:28:13;;;;;;;9.68;1.60;;;1.40;99.90;;;;;;5083289;28;20105;-69
2022/01/21 06:30:38;;;;;;;12.52;2.00;;;1.40;99.90;;;;;;5095111;28;20054;-66
2022/01/21 06:33:04;;;;;;;9.73;1.83;;;1.40;99.90;;;;;;5094568;28;20405;-66
2022/01/21 06:35:30;;;;;;;11.73;1.85;;;1.40;99.90;;;;;;5094363;28;20538;-67
2022/01/21 06:37:56;;;;;;;8.07;2.20;;;1.50;99.90;;;;;;5112986;28;20048;-66
2022/01/21 06:40:22;;;;;;;10.02;1.20;;;1.50;99.90;;;;;;5102191;28;20056;-67
2022/01/21 06:42:49;;;;;;;8.07;1.60;;;1.50;99.90;;;;;;5078745;28;20051;-68
2022/01/21 06:45:15;;;;;;;8.48;1.60;;;1.50;99.90;;;;;;5083017;28;20135;-67
2022/01/21 06:47:40;;;;;;;9.02;1.23;;;1.40;99.90;;;;;;5085719;28;20054;-68
2022/01/21 06:50:06;;;;;;;4.53;1.13;;;1.40;99.90;;;;;;5094111;28;20101;-67
2022/01/21 06:52:33;;;;;;;11.10;1.70;;;1.40;99.90;;;;;;5109579;27;20075;-68
2022/01/21 06:54:59;;;;;;;8.30;1.30;;;1.40;99.90;;;;;;5074414;28;20094;-67
2022/01/21 06:57:26;;;;;;;11.38;4.32;;;1.30;99.90;;;;;;5107719;28;20052;-67
2022/01/21 06:59:52;;;;;;;9.05;4.00;;;1.20;99.90;;;;;;5108676;28;20400;-68
2022/01/21 07:02:19;;;;;;;11.07;5.45;;;1.20;99.90;;;;;;5074618;28;20060;-67
2022/01/21 07:04:49;;;;;;;13.13;5.40;;;1.10;99.90;;;;;;5080569;28;20055;-65
2022/01/21 07:07:16;;;;;;;12.35;4.97;;;1.00;99.90;;;;;;5093192;28;20056;-65
2022/01/21 07:09:42;;;;;;;12.13;4.72;;;0.90;99.90;;;;;;5094582;28;20059;-65
2022/01/21 07:12:08;;;;;;;12.27;4.60;;;0.80;99.90;;;;;;5112166;28;20050;-67
2022/01/21 07:14:34;;;;;;;14.77;4.65;;;0.80;99.90;;;;;;5114833;28;20051;-66
2022/01/21 07:16:59;;;;;;;13.80;5.70;;;0.70;99.90;;;;;;5100534;28;20047;-66
2022/01/21 07:19:25;;;;;;;10.73;5.50;;;0.70;99.90;;;;;;5090791;28;20040;-68
2022/01/21 07:21:51;;;;;;;16.05;8.20;;;0.60;99.90;;;;;;5085193;28;20475;-66
2022/01/21 07:24:16;;;;;;;10.10;6.18;;;0.50;99.90;;;;;;5086421;28;20052;-68
2022/01/21 07:26:42;;;;;;;9.55;4.43;;;0.40;99.90;;;;;;5094364;28;20060;-66
2022/01/21 07:29:07;;;;;;;12.93;6.10;;;0.40;99.90;;;;;;5093360;28;20551;-67
2022/01/21 07:31:33;;;;;;;13.30;5.75;;;0.40;99.90;;;;;;5093878;28;20095;-67
2022/01/21 07:34:01;;;;;;;12.80;5.55;;;0.30;99.90;;;;;;5093837;28;20396;-66
2022/01/21 07:36:27;;;;;;;19.20;5.60;;;0.30;99.90;;;;;;5094212;28;20048;-66
2022/01/21 07:38:53;;;;;;;11.55;2.65;;;0.30;99.90;;;;;;5094317;28;20403;-66
2022/01/21 07:41:19;;;;;;;14.35;2.30;;;0.30;99.90;;;;;;5093756;28;20557;-68
2022/01/21 07:43:44;;;;;;;6.85;1.83;;;0.30;99.90;;;;;;5092709;28;20091;-67
2022/01/21 07:46:10;;;;;;;8.23;1.30;;;0.40;99.90;;;;;;5096356;28;20054;-68
2022/01/21 07:48:36;;;;;;;13.23;2.55;;;0.50;99.90;;;;;;5094823;28;20130;-66
2022/01/21 07:51:01;;;;;;;8.30;1.95;;;0.60;99.90;;;;;;5098735;28;20502;-68
2022/01/21 07:53:27;;;;;;;7.55;1.70;;;0.80;99.90;;;;;;5093686;28;20048;-67
2022/01/21 07:55:52;;;;;;;6.70;1.48;;;0.90;99.90;;;;;;5094251;28;20051;-68
2022/01/21 07:58:18;;;;;;;7.63;1.48;;;1.00;99.90;;;;;;5093174;28;20601;-67
2022/01/21 08:00:44;;;;;;;12.73;1.98;;;1.10;99.90;;;;;;5092797;28;20182;-66
2022/01/21 08:03:10;;;;;;;12.70;2.35;;;1.20;99.90;;;;;;5093233;28;20131;-69
2022/01/21 08:05:35;;;;;;;16.25;2.20;;;1.30;99.90;;;;;;5094372;28;20396;-66
2022/01/21 08:08:02;;;;;;;7.88;1.92;;;1.40;99.90;;;;;;5092797;28;20071;-67
2022/01/21 08:10:27;;;;;;;13.90;2.92;;;1.40;99.90;;;;;;5094009;28;20058;-67
2022/01/21 08:12:53;;;;;;;10.23;2.50;;;1.50;99.90;;;;;;5092952;28;20048;-68
2022/01/21 08:15:19;;;;;;;12.10;2.25;;;1.50;99.90;;;;;;5092757;28;20052;-67
2022/01/21 08:17:45;;;;;;;8.77;2.05;;;1.60;99.90;;;;;;5075295;28;20055;-68
2022/01/21 08:20:10;;;;;;;8.05;1.75;;;1.70;99.90;;;;;;5092634;28;20055;-66
2022/01/21 08:22:37;;;;;;;8.82;1.67;;;1.80;99.90;;;;;;5093192;28;20150;-69
2022/01/21 08:25:03;;;;;;;7.95;1.75;;;1.70;99.90;;;;;;5092195;28;20048;-67
2022/01/21 08:27:29;;;;;;;7.13;1.25;;;1.70;99.90;;;;;;5076138;28;20051;-66
2022/01/21 08:29:56;;;;;;;6.80;1.80;;;1.70;99.90;;;;;;5092246;28;20476;-67
2022/01/21 08:32:22;;;;;;;6.90;1.50;;;1.70;99.90;;;;;;5092569;28;20056;-68
2022/01/21 08:34:49;;;;;;;8.55;1.45;;;1.70;99.90;;;;;;5092967;28;20051;-68
2022/01/21 08:37:15;;;;;;;10.57;1.50;;;1.60;99.90;;;;;;5092855;28;20132;-67
2022/01/21 08:39:43;;;;;;;10.00;1.48;;;1.60;99.90;;;;;;5092164;28;20052;-68
2022/01/21 08:42:09;;;;;;;14.38;1.75;;;1.60;99.90;;;;;;5092765;28;20059;-67
2022/01/21 08:44:35;;;;;;;9.20;1.50;;;1.60;99.90;;;;;;5092723;28;20083;-68
2022/01/21 08:47:01;;;;;;;11.23;1.70;;;1.60;99.90;;;;;;5092396;28;20059;-68
2022/01/21 08:49:27;;;;;;;9.85;1.40;;;1.60;99.90;;;;;;5092529;28;20052;-68
2022/01/21 08:51:56;;;;;;;11.13;2.00;;;1.60;99.90;;;;;;5092988;28;20059;-67
2022/01/21 08:54:22;;;;;;;11.30;1.70;;;1.60;99.90;;;;;;5092369;28;20127;-67
2022/01/21 08:56:50;;;;;;;9.27;2.30;;;1.70;99.90;;;;;;5092098;28;20070;-67
2022/01/21 08:59:17;;;;;;;10.15;2.00;;;1.70;99.90;;;;;;5093461;28;20094;-67
2022/01/21 09:01:43;;;;;;;8.88;1.70;;;1.90;99.90;;;;;;5074548;28;20135;-68
2022/01/21 09:04:10;;;;;;;7.20;1.75;;;1.80;99.90;;;;;;5091492;28;20052;-67
2022/01/21 09:06:35;;;;;;;9.57;1.80;;;2.00;99.90;;;;;;5091692;28;20131;-67
2022/01/21 09:09:03;;;;;;;8.77;2.03;;;2.00;99.90;;;;;;5091755;28;20135;-68
2022/01/21 09:11:28;;;;;;;9.27;2.20;;;2.10;99.90;;;;;;5091987;28;20051;-69
2022/01/21 09:13:54;;;;;;;7.82;2.42;;;2.10;99.90;;;;;;5093166;28;20409;-67
2022/01/21 09:16:20;;;;;;;13.60;2.90;;;2.20;99.90;;;;;;5091729;28;20048;-67
2022/01/21 09:18:48;;;;;;;9.20;2.67;;;2.30;99.90;;;;;;5091841;28;20487;-68
2022/01/21 09:21:17;;;;;;;17.15;2.58;;;2.30;99.90;;;;;;5092024;28;20123;-69
2022/01/21 09:23:42;;;;;;;7.28;2.35;;;2.40;99.90;;;;;;5091503;28;20392;-68
2022/01/21 09:26:09;;;;;;;10.65;2.33;;;2.50;99.90;;;;;;5092108;28;20037;-68
2022/01/21 09:28:35;;;;;;;13.50;2.55;;;2.60;99.90;;;;;;5091760;28;20060;-68
2022/01/21 09:31:01;;;;;;;16.88;2.95;;;2.60;99.90;;;;;;5093208;28;20435;-68
2022/01/21 09:33:27;;;;;;;15.48;3.83;;;2.70;99.90;;;;;;5091483;28;20044;-68
2022/01/21 09:35:52;;;;;;;14.85;2.83;;;2.80;99.90;;;;;;5091108;28;20052;-67
2022/01/21 09:38:19;;;;;;;13.48;2.63;;;2.90;99.90;;;;;;5091719;28;20131;-67
2022/01/21 09:40:47;;;;;;;10.38;2.95;;;3.00;99.90;;;;;;5094023;28;20083;-68
2022/01/21 09:43:14;;;;;;;15.13;2.90;;;3.00;99.90;;;;;;5096341;28;20068;-68
2022/01/21 09:45:41;;;;;;;9.70;2.67;;;3.00;99.90;;;;;;5095790;28;20500;-66
2022/01/21 09:48:09;;;;;;;12.32;2.90;;;3.10;99.90;;;;;;5078780;28;20147;-68
2022/01/21 09:50:35;;;;;;;11.57;3.03;;;3.10;99.90;;;;;;5095607;28;20059;-67
2022/01/21 09:53:01;;;;;;;9.80;3.25;;;3.10;99.90;;;;;;5095786;28;20388;-67
2022/01/21 09:55:27;;;;;;;11.52;2.97;;;3.20;99.90;;;;;;5095977;28;20052;-67
2022/01/21 09:57:56;;;;;;;13.82;3.85;;;3.20;99.90;;;;;;5097282;28;20052;-67
2022/01/21 10:00:28;;;;;;;13.70;3.55;;;3.20;99.90;;;;;;5095802;28;20052;-67
2022/01/21 10:02:56;;;;;;;15.77;3.55;;;3.30;99.90;;;;;;5095305;28;20048;-68
2022/01/21 10:05:22;;;;;;;15.15;3.38;;;3.30;99.90;;;;;;5096778;28;20109;-68
2022/01/21 10:07:49;;;;;;;9.90;2.72;;;3.50;99.90;;;;;;5095163;28;20079;-67
2022/01/21 10:10:16;;;;;;;12.07;2.92;;;3.60;99.90;;;;;;5097168;28;20055;-67
2022/01/21 10:12:45;;;;;;;12.77;3.13;;;3.70;99.90;;;;;;5095674;28;20432;-69
2022/01/21 10:15:12;;;;;;;6.85;2.15;;;3.80;99.90;;;;;;5096498;28;20055;-68
2022/01/21 10:17:39;;;;;;;14.13;2.80;;;3.90;99.90;;;;;;5096248;28;20084;-69
2022/01/21 10:20:31;;;;;;;11.00;2.40;;;4.00;99.90;;;;;;5096841;28;20540;-67
2022/01/21 10:23:06;;;;;;;12.02;2.80;;;4.20;99.90;;;;;;5127228;27;20044;-68
2022/01/21 10:25:33;;;;;;;7.20;2.60;;;4.20;99.90;;;;;;5095363;28;20056;-68
2022/01/21 10:28:17;;;;;;;8.95;3.42;;;4.20;99.90;;;;;;5094505;28;20126;-68
2022/01/21 10:30:44;;;;;;;10.27;2.90;;;4.30;99.90;;;;;;5074659;28;20220;-68
2022/01/21 10:33:24;;;;;;;8.52;2.88;;;4.30;99.90;;;;;;5074514;28;20493;-67
2022/01/21 10:36:04;;;;;;;12.27;2.70;;;4.40;99.90;;;;;;5074900;28;20053;-67
2022/01/21 10:38:31;;;;;;;12.25;2.50;;;4.40;99.90;;;;;;5074416;28;20500;-68
2022/01/21 10:41:04;;;;;;;13.25;2.55;;;4.40;99.90;;;;;;5074779;28;20048;-68
2022/01/21 10:43:30;;;;;;;12.50;2.65;;;4.40;99.90;;;;;;5081412;28;20044;-67
2022/01/21 10:45:57;;;;;;;12.07;2.53;;;4.40;99.90;;;;;;5094493;28;20501;-68
2022/01/21 10:48:24;;;;;;;10.77;3.08;;;4.50;99.90;;;;;;5094777;28;20105;-67
2022/01/21 10:51:25;;;;;;;11.68;2.97;;;4.40;99.90;;;;;;5128920;27;20060;-67
2022/01/21 10:53:52;;;;;;;13.18;2.30;;;4.40;99.90;;;;;;5094488;28;20536;-67
2022/01/21 10:56:18;;;;;;;10.00;2.72;;;4.50;99.90;;;;;;5088317;28;20052;-69
2022/01/21 10:58:53;;;;;;;11.05;2.50;;;4.60;99.90;;;;;;5082127;28;20040;-70
2022/01/21 11:01:26;;;;;;;12.60;2.42;;;4.60;99.90;;;;;;5077305;28;20051;-67
2022/01/21 11:04:00;;;;;;;11.77;2.83;;;4.70;99.90;;;;;;5091954;28;20093;-69
2022/01/21 11:06:35;;;;;;;15.98;3.08;;;4.80;99.90;;;;;;5084488;28;20105;-67
2022/01/21 11:09:15;;;;;;;14.80;3.40;;;4.90;99.90;;;;;;5094845;28;20059;-68
2022/01/21 11:11:40;;;;;;;12.68;3.92;;;5.00;99.90;;;;;;5079134;28;20123;-67
2022/01/21 11:14:11;;;;;;;12.95;3.17;;;5.10;99.90;;;;;;5095467;28;20534;-69
2022/01/21 11:16:39;;;;;;;12.05;3.05;;;5.10;99.90;;;;;;5095159;28;20044;-69
2022/01/21 11:19:08;;;;;;;17.13;2.80;;;5.10;99.90;;;;;;5091419;28;20547;-68
2022/01/21 11:21:40;;;;;;;17.02;3.33;;;5.10;99.90;;;;;;5107481;28;20048;-68
2022/01/21 11:24:07;;;;;;;13.23;3.40;;;5.20;99.90;;;;;;5074080;28;20101;-67
2022/01/21 11:26:33;;;;;;;11.45;3.05;;;5.20;99.90;;;;;;5074663;28;20052;-67
2022/01/21 11:29:00;;;;;;;16.83;3.08;;;5.30;99.90;;;;;;5091403;28;20062;-68
2022/01/21 11:31:28;;;;;;;10.30;2.38;;;5.30;99.90;;;;;;5084460;28;20564;-68
2022/01/21 11:33:54;;;;;;;13.57;3.22;;;5.20;99.90;;;;;;5108178;28;20424;-67
2022/01/21 11:36:20;;;;;;;16.77;2.80;;;5.30;99.90;;;;;;5107471;28;20131;-68
2022/01/21 11:38:46;;;;;;;19.25;3.30;;;5.20;99.90;;;;;;5075091;28;20075;-68
2022/01/21 11:41:16;;;;;;;11.30;3.10;;;5.30;99.90;;;;;;5090286;28;20056;-68
2022/01/21 11:43:55;;;;;;;14.27;4.25;;;5.30;99.90;;;;;;5086082;28;20495;-68
2022/01/21 11:49:11;;;;;;;18.20;3.83;;;5.30;99.90;;;;;;5074649;28;20378;-70
2022/01/21 11:51:39;;;;;;;12.57;2.95;;;5.40;99.90;;;;;;5108929;27;20435;-68
2022/01/21 11:54:10;;;;;;;16.90;3.85;;;5.40;99.90;;;;;;5107975;28;20053;-68
2022/01/21 11:56:56;;;;;;;14.07;3.45;;;5.50;99.90;;;;;;5119786;27;20047;-68
2022/01/21 11:59:36;;;;;;;15.15;4.15;;;5.60;99.90;;;;;;5092257;28;20052;-68
2022/01/21 12:02:21;;;;;;;15.15;3.05;;;;;;;;;;5091884;28;20097;-68
2022/01/21 12:04:48;;;;;;;17.80;3.15;;;5.80;99.90;;;;;;5093497;28;20044;-68
2022/01/21 12:07:36;;;;;;;11.55;3.35;;;5.90;99.90;;;;;;5101919;28;20480;-70
2022/01/21 12:10:18;;;;;;;9.48;2.53;;;6.00;99.90;;;;;;5110848;28;20048;-69
2022/01/21 12:13:02;;;;;;;12.55;2.60;;;6.10;99.90;;;;;;5102506;28;20040;-68
2022/01/21 12:15:33;;;;;;;11.40;2.63;;;6.20;99.90;;;;;;5092604;28;20095;-69
2022/01/21 12:21:03;;;;;;;14.18;3.05;;;6.20;99.90;;;;;;5092908;28;20044;-69
2022/01/21 12:23:30;;;;;;;6.60;2.83;;;6.30;99.90;;;;;;5093540;28;20064;-68
2022/01/21 12:26:12;;;;;;;8.15;2.13;;;6.30;99.90;;;;;;5103746;28;20044;-68
2022/01/21 12:28:39;;;;;;;14.68;2.67;;;6.40;99.90;;;;;;5091256;28;20044;-67
2022/01/21 12:31:06;;;;;;;10.27;2.33;;;6.40;99.90;;;;;;5090354;28;20052;-68
2022/01/21 12:34:22;;;;;;;9.65;2.58;;;6.40;99.90;;;;;;5126117;27;20055;-69
2022/01/21 12:36:49;;;;;;;7.00;1.48;;;6.40;99.90;;;;;;5091258;28;20060;-70
2022/01/21 12:39:47;;;;;;;11.20;1.90;;;6.40;99.90;;;;;;5092391;28;20056;-68
2022/01/21 12:42:27;;;;;;;10.05;1.92;;;6.40;99.90;;;;;;5093033;28;20476;-69
2022/01/21 12:45:07;;;;;;;6.50;1.90;;;6.50;99.90;;;;;;5092944;28;20135;-68
2022/01/21 12:47:33;;;;;;;7.20;1.65;;;6.50;99.90;;;;;;5091477;28;20166;-68
2022/01/21 12:50:33;;;;;;;10.35;2.58;;;6.60;99.90;;;;;;5082590;28;20128;-68
2022/01/21 12:58:20;;;;;;;8.02;1.60;;;6.60;99.90;;;;;;5089450;28;20476;-69
2022/01/21 13:00:45;;;;;;;10.52;2.10;;;6.70;99.90;;;;;;5093280;28;20386;-68
2022/01/21 13:03:48;;;;;;;7.18;1.67;;;6.70;99.90;;;;;;5092651;28;20048;-68
2022/01/21 13:06:26;;;;;;;7.03;2.70;;;6.70;99.90;;;;;;5093107;28;20056;-66
2022/01/21 13:09:08;;;;;;;7.07;2.15;;;6.70;99.90;;;;;;5092247;28;20104;-70
2022/01/21 13:11:40;;;;;;;;;;;6.70;99.90;;;;;;5094047;28;20394;-70
2022/01/21 13:14:25;;;;;;;7.07;1.92;;;6.60;99.90;;;;;;5092817;28;19924;-69
2022/01/21 13:17:05;;;;;;;8.20;2.13;;;6.60;99.90;;;;;;5091332;28;20044;-68
2022/01/21 13:19:52;;;;;;;8.65;1.95;;;6.60;99.90;;;;;;5092339;28;20105;-67
2022/01/21 13:22:23;;;;;;;10.60;3.22;;;6.60;99.90;;;;;;5090406;28;20055;-68
2022/01/21 13:25:02;;;;;;;11.05;3.35;;;6.60;99.90;;;;;;5091405;28;20150;-68
2022/01/21 13:27:28;;;;;;;11.82;2.92;;;6.60;99.90;;;;;;5091834;28;20097;-68
2022/01/21 13:30:05;;;;;;;10.55;1.75;;;6.60;99.90;;;;;;5091889;28;20492;-68
2022/01/21 13:32:31;;;;;;;8.43;2.13;;;6.50;99.90;;;;;;5092811;28;20396;-68
2022/01/21 13:35:17;;;;;;;9.38;2.63;;;6.50;99.90;;;;;;5075345;28;20048;-68
2022/01/21 13:38:01;;;;;;;14.82;2.20;;;6.50;99.90;;;;;;5091685;28;20496;-68
2022/01/21 13:40:30;;;;;;;12.55;2.53;;;6.50;99.90;;;;;;5091779;28;20059;-69
2022/01/21 13:43:30;;;;;;;16.65;2.55;;;6.50;99.90;;;;;;5093422;28;20052;-69
2022/01/21 13:45:59;;;;;;;9.45;2.10;;;6.50;99.90;;;;;;5088277;28;20059;-68
2022/01/21 13:48:27;;;;;;;10.00;2.33;;;6.50;99.90;;;;;;5091463;28;20064;-68
2022/01/21 13:50:54;;;;;;;10.90;2.08;;;6.50;99.90;;;;;;5092119;28;20410;-68
2022/01/21 13:53:22;;;;;;;14.63;3.20;;;6.50;99.90;;;;;;5091723;28;20048;-68
2022/01/21 13:55:54;;;;;;;11.32;2.25;;;6.50;99.90;;;;;;5091578;28;20100;-69